Time;durP1;ratioP1;P1;durP2;ratioP2;P2;SDS_P1;SDS_P2;PMS_P1;PMS_P2;Temp;Humidity;BMP_temperature;BMP_pressure;BME280_temperature;BME280_humidity;BME280_pressure;Samples;Min_cycle;Max_cycle;Signal;HPM_P1;HPM_P2
2023/09/21 00:00:48;;;;;;;7.45;2.75;;;17.20;99.90;;;;;;5021480;28;20045;-82
2023/09/21 00:03:14;;;;;;;5.43;2.92;;;17.30;99.90;;;;;;5022931;28;20051;-81
2023/09/21 00:05:45;;;;;;;6.55;2.53;;;17.30;99.90;;;;;;5007091;28;20052;-82
2023/09/21 00:08:11;;;;;;;6.25;3.13;;;17.30;99.90;;;;;;5006614;28;20098;-87
2023/09/21 00:10:37;;;;;;;6.38;2.72;;;17.30;99.90;;;;;;5011598;28;20493;-81
2023/09/21 00:13:04;;;;;;;7.45;2.50;;;17.30;99.90;;;;;;5025551;28;20049;-79
2023/09/21 00:15:31;;;;;;;7.07;2.80;;;17.30;99.90;;;;;;5018111;28;20045;-80
2023/09/21 00:17:58;;;;;;;8.00;3.20;;;17.30;99.90;;;;;;5024457;28;20075;-82
2023/09/21 00:21:00;;;;;;;6.07;3.20;;;17.30;99.90;;;;;;5015869;28;20462;-82
2023/09/21 00:23:16;;;;;;;7.88;2.65;;;17.30;99.90;;;;;;5017808;28;20404;-81
2023/09/21 00:25:42;;;;;;;7.03;2.70;;;17.30;99.90;;;;;;5017917;28;20503;-81
2023/09/21 00:28:12;;;;;;;5.22;2.63;;;17.40;99.90;;;;;;5017035;28;20076;-80
2023/09/21 00:30:39;;;;;;;5.60;2.80;;;17.30;99.90;;;;;;5009804;28;20164;-80
2023/09/21 00:33:07;;;;;;;5.57;2.63;;;17.30;99.90;;;;;;5008580;28;20466;-82
2023/09/21 00:35:33;;;;;;;4.93;2.80;;;17.30;99.90;;;;;;5001606;28;20054;-82
2023/09/21 00:38:01;;;;;;;9.48;2.80;;;17.30;99.90;;;;;;5026459;28;20468;-81
2023/09/21 00:40:27;;;;;;;5.97;2.70;;;17.40;99.90;;;;;;5032114;28;20041;-83
2023/09/21 00:42:52;;;;;;;8.23;2.70;;;17.40;99.90;;;;;;5009133;28;20451;-83
2023/09/21 00:45:21;;;;;;;5.53;2.42;;;17.30;99.90;;;;;;5016007;28;20091;-82
2023/09/21 00:47:51;;;;;;;3.92;2.58;;;17.40;99.90;;;;;;5007577;28;20058;-81
2023/09/21 00:50:22;;;;;;;6.53;2.80;;;17.40;99.90;;;;;;5013615;28;20062;-81
2023/09/21 00:52:52;;;;;;;5.05;3.03;;;17.40;99.90;;;;;;5006193;28;20068;-84
2023/09/21 00:55:28;;;;;;;5.70;2.50;;;17.30;99.90;;;;;;4972717;28;20053;-89
2023/09/21 00:57:57;;;;;;;10.70;2.97;;;17.40;99.90;;;;;;5007428;28;20042;-85
2023/09/21 01:00:30;;;;;;;5.65;2.45;;;17.30;99.90;;;;;;5011249;28;20088;-82
2023/09/21 01:02:59;;;;;;;8.50;2.65;;;17.40;99.90;;;;;;5016396;28;20485;-87
2023/09/21 01:05:25;;;;;;;5.72;2.67;;;17.40;99.90;;;;;;4995470;28;20056;-86
2023/09/21 01:07:51;;;;;;;7.68;2.80;;;17.40;99.90;;;;;;4992342;28;20045;-84
2023/09/21 01:10:22;;;;;;;7.15;2.53;;;17.40;99.90;;;;;;5022784;28;20053;-79
2023/09/21 01:12:51;;;;;;;5.68;2.88;;;17.40;99.90;;;;;;5028740;28;20034;-80
2023/09/21 01:15:18;;;;;;;7.63;2.70;;;17.40;99.90;;;;;;5020355;28;20133;-86
2023/09/21 01:17:45;;;;;;;6.53;2.65;;;17.40;99.90;;;;;;5017324;28;20045;-87
2023/09/21 01:20:32;;;;;;;5.55;2.50;;;17.40;99.90;;;;;;5025952;28;20052;-83
2023/09/21 01:23:18;;;;;;;6.53;2.50;;;17.40;99.90;;;;;;5025240;28;20637;-83
2023/09/21 01:25:52;;;;;;;6.07;2.00;;;17.40;99.90;;;;;;5007790;28;20061;-80
2023/09/21 01:28:22;;;;;;;4.15;2.10;;;17.40;99.90;;;;;;5030850;28;20667;-80
2023/09/21 01:30:49;;;;;;;5.18;2.78;;;17.40;99.90;;;;;;5031709;28;20045;-83
2023/09/21 01:33:17;;;;;;;4.05;2.30;;;17.40;99.90;;;;;;5031182;28;20505;-83
2023/09/21 01:35:44;;;;;;;5.90;2.50;;;17.40;99.90;;;;;;5036225;28;20141;-83
2023/09/21 01:38:12;;;;;;;6.00;2.92;;;17.40;99.90;;;;;;5039110;28;20068;-84
2023/09/21 01:40:38;;;;;;;7.50;3.10;;;17.40;99.90;;;;;;5031474;28;20091;-84
2023/09/21 01:43:08;;;;;;;6.00;2.78;;;17.30;99.90;;;;;;5031195;28;20074;-84
2023/09/21 01:45:37;;;;;;;6.57;2.58;;;17.30;99.90;;;;;;5027201;28;20069;-80
2023/09/21 01:48:15;;;;;;;15.82;3.15;;;17.30;99.90;;;;;;5031311;28;20041;-79
2023/09/21 01:50:44;;;;;;;5.10;2.67;;;17.30;99.90;;;;;;5022614;28;20440;-90
2023/09/21 01:53:14;;;;;;;4.35;2.17;;;17.30;99.90;;;;;;5023978;28;20041;-83
2023/09/21 01:55:41;;;;;;;6.43;2.60;;;17.30;99.90;;;;;;5019534;28;20045;-81
2023/09/21 01:58:11;;;;;;;5.28;2.20;;;17.30;99.90;;;;;;5025659;28;20042;-81
2023/09/21 02:00:41;;;;;;;5.03;2.40;;;17.30;99.90;;;;;;5020315;28;20121;-83
2023/09/21 02:03:12;;;;;;;6.80;3.05;;;17.20;99.90;;;;;;5025437;28;20045;-83
2023/09/21 02:05:42;;;;;;;8.27;2.55;;;17.30;99.90;;;;;;5027872;28;20052;-80
2023/09/21 02:08:09;;;;;;;5.38;2.30;;;17.30;99.90;;;;;;5022283;28;20437;-81
2023/09/21 02:10:37;;;;;;;7.15;2.78;;;17.20;99.90;;;;;;5015545;28;20042;-83
2023/09/21 02:13:05;;;;;;;4.57;2.17;;;17.20;99.90;;;;;;5015619;28;20504;-81
2023/09/21 02:15:35;;;;;;;5.28;2.83;;;17.20;99.90;;;;;;5003553;28;20046;-80
2023/09/21 02:18:04;;;;;;;6.82;2.80;;;17.20;99.90;;;;;;4998567;28;20505;-81
2023/09/21 02:20:31;;;;;;;4.72;2.40;;;17.20;99.90;;;;;;5023343;28;20584;-81
2023/09/21 02:22:59;;;;;;;5.30;2.40;;;17.20;99.90;;;;;;5027185;28;20512;-83
2023/09/21 02:25:26;;;;;;;4.75;2.45;;;17.20;99.90;;;;;;5025091;28;20501;-82
2023/09/21 02:27:52;;;;;;;4.85;2.75;;;17.20;99.90;;;;;;5021280;28;20049;-84
2023/09/21 02:30:21;;;;;;;7.18;2.80;;;17.20;99.90;;;;;;5024124;28;20034;-81
2023/09/21 02:32:54;;;;;;;5.78;2.50;;;17.20;99.90;;;;;;5026969;28;20588;-85
2023/09/21 02:35:27;;;;;;;7.20;2.50;;;17.20;99.90;;;;;;5016972;28;20119;-82
2023/09/21 02:37:53;;;;;;;;;;;17.20;99.90;;;;;;5004493;28;20084;-83
2023/09/21 02:40:21;;;;;;;6.43;2.50;;;17.20;99.90;;;;;;5031066;28;19956;-81
2023/09/21 02:42:51;;;;;;;4.82;2.72;;;17.20;99.90;;;;;;5026294;28;20050;-81
2023/09/21 02:45:18;;;;;;;8.90;2.53;;;17.20;99.90;;;;;;5002602;28;20112;-80
2023/09/21 02:47:46;;;;;;;4.38;2.45;;;17.30;99.90;;;;;;5012127;28;20046;-80
2023/09/21 02:50:21;;;;;;;5.30;2.50;;;17.30;99.90;;;;;;5003791;28;20452;-81
2023/09/21 02:52:51;;;;;;;5.30;2.42;;;17.30;99.90;;;;;;5001247;28;20049;-80
2023/09/21 02:55:17;;;;;;;5.47;2.45;;;17.30;99.90;;;;;;5015438;28;20045;-80
2023/09/21 02:57:54;;;;;;;6.68;2.40;;;17.30;99.90;;;;;;4990519;28;20033;-81
2023/09/21 03:00:21;;;;;;;3.80;2.08;;;17.30;99.90;;;;;;4987832;28;20110;-83
2023/09/21 03:02:50;;;;;;;7.25;2.63;;;17.30;99.90;;;;;;5022002;28;20125;-80
2023/09/21 03:05:19;;;;;;;4.60;2.80;;;17.30;99.90;;;;;;4999126;28;20075;-80
2023/09/21 03:07:45;;;;;;;4.00;2.42;;;17.30;99.90;;;;;;5016633;28;20049;-80
2023/09/21 03:10:12;;;;;;;6.25;2.33;;;17.20;99.90;;;;;;5020230;28;20041;-80
2023/09/21 03:12:38;;;;;;;3.83;2.40;;;17.20;99.90;;;;;;5005862;28;20398;-80
2023/09/21 03:15:13;;;;;;;5.38;2.40;;;17.20;99.90;;;;;;5009398;28;20073;-80
2023/09/21 03:17:40;;;;;;;6.55;2.47;;;17.20;99.90;;;;;;4989227;28;20041;-80
2023/09/21 03:20:28;;;;;;;4.10;2.28;;;17.20;99.90;;;;;;5008643;28;20053;-80
2023/09/21 03:22:54;;;;;;;7.72;2.42;;;17.20;99.90;;;;;;4988652;28;20117;-80
2023/09/21 03:25:25;;;;;;;3.90;2.28;;;17.20;99.90;;;;;;5021334;28;20124;-82
2023/09/21 03:27:55;;;;;;;6.38;2.55;;;17.20;99.90;;;;;;4989382;28;20144;-80
2023/09/21 03:30:23;;;;;;;4.75;2.45;;;17.20;99.90;;;;;;5024271;28;20072;-80
2023/09/21 03:32:50;;;;;;;7.78;2.55;;;17.20;99.90;;;;;;5018213;28;20082;-80
2023/09/21 03:35:16;;;;;;;5.93;2.80;;;17.20;99.90;;;;;;5002556;28;20183;-79
2023/09/21 03:37:43;;;;;;;5.32;2.28;;;17.30;99.90;;;;;;5001215;28;20113;-79
2023/09/21 03:40:13;;;;;;;5.43;2.58;;;17.30;99.90;;;;;;5003849;28;20056;-79
2023/09/21 03:42:39;;;;;;;5.72;2.53;;;17.20;99.90;;;;;;5026127;28;20513;-80
2023/09/21 03:45:06;;;;;;;6.75;2.55;;;17.30;99.90;;;;;;5002901;28;20041;-79
2023/09/21 03:47:33;;;;;;;7.78;2.50;;;17.30;99.90;;;;;;5023515;28;20124;-80
2023/09/21 03:50:03;;;;;;;4.82;3.22;;;17.30;99.90;;;;;;5001947;28;20237;-80
2023/09/21 03:52:29;;;;;;;6.90;2.90;;;17.20;99.90;;;;;;5020627;28;20493;-83
2023/09/21 03:54:55;;;;;;;8.20;3.05;;;17.20;99.90;;;;;;5000798;28;20128;-80
2023/09/21 03:57:21;;;;;;;5.88;2.95;;;17.20;99.90;;;;;;5007409;28;20048;-81
2023/09/21 03:59:47;;;;;;;4.25;2.75;;;17.10;99.90;;;;;;4989509;28;20091;-82
2023/09/21 04:02:13;;;;;;;6.15;2.90;;;17.10;99.90;;;;;;5003305;28;20141;-80
2023/09/21 04:04:39;;;;;;;5.18;2.72;;;17.00;99.90;;;;;;5007000;28;20481;-80
2023/09/21 04:07:07;;;;;;;7.05;3.42;;;17.10;99.90;;;;;;5017704;28;20516;-78
2023/09/21 04:09:34;;;;;;;7.60;3.63;;;17.00;99.90;;;;;;4986049;28;20069;-81
2023/09/21 04:12:00;;;;;;;5.15;2.80;;;17.00;99.90;;;;;;4997384;28;20046;-82
2023/09/21 04:14:27;;;;;;;4.75;3.58;;;17.00;99.90;;;;;;4997702;28;20119;-80
2023/09/21 04:16:56;;;;;;;7.25;3.30;;;17.10;99.90;;;;;;5018025;28;20049;-79
2023/09/21 04:19:22;;;;;;;5.75;3.20;;;17.00;99.90;;;;;;5027817;28;20571;-80
2023/09/21 04:21:48;;;;;;;8.65;3.75;;;17.00;99.90;;;;;;5028938;28;20076;-81
2023/09/21 04:24:14;;;;;;;4.05;2.80;;;17.10;99.90;;;;;;5017464;28;20041;-81
2023/09/21 04:26:40;;;;;;;3.95;2.35;;;17.10;99.90;;;;;;5022964;28;20413;-77
2023/09/21 04:29:08;;;;;;;6.55;3.20;;;17.10;99.90;;;;;;5014906;28;20049;-78
2023/09/21 04:31:38;;;;;;;6.63;3.33;;;17.10;99.90;;;;;;5012453;28;20051;-80
2023/09/21 04:34:04;;;;;;;6.57;2.90;;;17.10;99.90;;;;;;5019436;28;20542;-79
2023/09/21 04:36:30;;;;;;;6.10;2.80;;;17.20;99.90;;;;;;5015956;28;20042;-79
2023/09/21 04:38:56;;;;;;;6.38;2.85;;;17.20;99.90;;;;;;5023160;28;20037;-79
2023/09/21 04:41:22;;;;;;;4.72;3.20;;;17.20;99.90;;;;;;5011717;28;20038;-78
2023/09/21 04:43:48;;;;;;;5.82;2.80;;;17.20;99.90;;;;;;5013091;28;20045;-79
2023/09/21 04:46:14;;;;;;;6.50;2.60;;;17.20;99.90;;;;;;5013054;28;20040;-76
2023/09/21 04:48:40;;;;;;;7.05;2.78;;;17.30;99.90;;;;;;5019313;28;20054;-79
2023/09/21 04:51:11;;;;;;;5.35;3.30;;;17.30;99.90;;;;;;4995111;28;20058;-77
2023/09/21 04:53:37;;;;;;;6.47;3.50;;;17.30;99.90;;;;;;5019713;28;20112;-77
2023/09/21 04:56:03;;;;;;;5.75;2.85;;;17.30;99.90;;;;;;4991705;28;20516;-77
2023/09/21 04:58:29;;;;;;;7.22;3.10;;;17.30;99.90;;;;;;5020151;28;20033;-78
2023/09/21 05:00:54;;;;;;;5.30;2.60;;;17.30;99.90;;;;;;5023449;28;20405;-76
2023/09/21 05:03:20;;;;;;;6.30;3.13;;;17.20;99.90;;;;;;5020413;28;20038;-76
2023/09/21 05:05:47;;;;;;;7.82;3.35;;;17.30;99.90;;;;;;4999238;28;20048;-76
2023/09/21 05:08:13;;;;;;;5.13;3.53;;;17.20;99.90;;;;;;5022177;28;20046;-76
2023/09/21 05:10:41;;;;;;;6.38;3.25;;;17.10;99.90;;;;;;5004799;28;20042;-77
2023/09/21 05:13:06;;;;;;;6.72;3.50;;;17.10;99.90;;;;;;5009069;28;20050;-76
2023/09/21 05:15:32;;;;;;;8.30;3.42;;;17.10;99.90;;;;;;5035109;28;20045;-78
2023/09/21 05:17:58;;;;;;;7.30;3.78;;;17.10;99.90;;;;;;5019708;28;20350;-77
2023/09/21 05:20:23;;;;;;;6.13;3.22;;;17.10;99.90;;;;;;5020120;28;20072;-76
2023/09/21 05:22:51;;;;;;;7.38;3.50;;;17.10;99.90;;;;;;5041903;28;20046;-77
2023/09/21 05:25:16;;;;;;;5.22;3.33;;;17.00;99.90;;;;;;5032887;28;20046;-76
2023/09/21 05:27:42;;;;;;;8.15;3.15;;;17.00;99.90;;;;;;5028431;28;20053;-76
2023/09/21 05:30:13;;;;;;;5.45;3.17;;;17.00;99.90;;;;;;5016085;28;20049;-76
2023/09/21 05:32:39;;;;;;;7.70;3.22;;;16.90;99.90;;;;;;5031907;28;20625;-75
2023/09/21 05:35:06;;;;;;;6.30;3.53;;;16.90;99.90;;;;;;5016173;28;20050;-77
2023/09/21 05:37:32;;;;;;;8.02;3.72;;;16.90;99.90;;;;;;5022177;28;20532;-76
2023/09/21 05:39:57;;;;;;;8.43;3.53;;;16.90;99.90;;;;;;5024858;28;20068;-76
2023/09/21 05:42:26;;;;;;;6.82;3.47;;;16.80;99.90;;;;;;5027690;28;20045;-78
2023/09/21 05:44:52;;;;;;;4.75;2.80;;;16.80;99.90;;;;;;5030516;28;20073;-77
2023/09/21 05:47:17;;;;;;;6.72;3.00;;;16.80;99.90;;;;;;5026146;28;20073;-79
2023/09/21 05:49:43;;;;;;;6.93;3.50;;;16.80;99.90;;;;;;5016375;28;20088;-79
2023/09/21 05:52:12;;;;;;;6.90;3.50;;;16.80;99.90;;;;;;5024028;28;20509;-77
2023/09/21 05:54:42;;;;;;;8.13;3.13;;;16.80;99.90;;;;;;5016416;28;20069;-78
2023/09/21 05:57:08;;;;;;;6.28;3.58;;;16.70;99.90;;;;;;5027191;28;20485;-73
2023/09/21 05:59:34;;;;;;;7.43;3.83;;;16.80;99.90;;;;;;5024729;28;20458;-74
2023/09/21 06:02:00;;;;;;;9.35;3.35;;;16.70;99.90;;;;;;5023393;28;20072;-74
2023/09/21 06:04:26;;;;;;;8.05;3.17;;;16.70;99.90;;;;;;5017989;28;20601;-80
2023/09/21 06:06:54;;;;;;;8.70;3.38;;;16.60;99.90;;;;;;5017267;28;20084;-82
2023/09/21 06:09:20;;;;;;;6.30;3.05;;;16.70;99.90;;;;;;5035344;28;20089;-88
2023/09/21 06:11:46;;;;;;;5.85;3.53;;;16.70;99.90;;;;;;5034118;28;20045;-83
2023/09/21 06:14:12;;;;;;;5.28;3.28;;;16.60;99.90;;;;;;5029997;28;20072;-82
2023/09/21 06:16:37;;;;;;;5.47;3.33;;;16.60;99.90;;;;;;5031679;28;20132;-87
2023/09/21 06:19:03;;;;;;;8.07;3.63;;;16.60;99.90;;;;;;5034221;28;20041;-85
2023/09/21 06:21:30;;;;;;;7.25;3.40;;;16.60;99.90;;;;;;5044934;28;20475;-84
2023/09/21 06:23:56;;;;;;;9.85;3.58;;;16.60;99.90;;;;;;5023248;28;20056;-84
2023/09/21 06:26:22;;;;;;;7.85;3.60;;;16.50;99.90;;;;;;5027327;28;20117;-82
2023/09/21 06:28:48;;;;;;;7.15;3.80;;;16.60;99.90;;;;;;5026339;28;20038;-77
2023/09/21 06:31:15;;;;;;;10.02;3.75;;;16.50;99.90;;;;;;5022850;28;20138;-81
2023/09/21 06:33:41;;;;;;;7.13;3.30;;;16.50;99.90;;;;;;5022181;28;20045;-79
2023/09/21 06:36:15;;;;;;;7.18;3.70;;;16.50;99.90;;;;;;5014141;28;20145;-80
2023/09/21 06:38:42;;;;;;;5.68;3.65;;;16.50;99.90;;;;;;4997939;28;20049;-82
2023/09/21 06:41:09;;;;;;;9.07;3.72;;;16.50;99.90;;;;;;5022494;28;20062;-79
2023/09/21 06:43:37;;;;;;;8.25;4.75;;;16.50;99.90;;;;;;5010195;28;20046;-81
2023/09/21 06:46:03;;;;;;;4.55;3.22;;;16.40;99.90;;;;;;5018391;28;20053;-80
2023/09/21 06:48:29;;;;;;;5.97;3.10;;;16.40;99.90;;;;;;5010229;28;20064;-81
2023/09/21 06:50:55;;;;;;;8.77;3.90;;;16.40;99.90;;;;;;5022173;28;20050;-79
2023/09/21 06:53:23;;;;;;;7.80;3.50;;;16.50;99.90;;;;;;5004680;28;20041;-79
2023/09/21 06:55:49;;;;;;;7.72;3.67;;;16.50;99.90;;;;;;5006341;28;20100;-79
2023/09/21 06:58:15;;;;;;;4.63;2.13;;;16.50;99.90;;;;;;5021768;28;20040;-81
2023/09/21 07:00:41;;;;;;;4.00;1.50;;;16.40;99.90;;;;;;5021031;28;20042;-78
2023/09/21 07:03:07;;;;;;;4.38;1.80;;;16.20;99.90;;;;;;4999228;28;20057;-80
2023/09/21 07:05:32;;;;;;;3.28;1.40;;;16.00;99.90;;;;;;5009261;28;20131;-80
2023/09/21 07:07:58;;;;;;;3.55;1.15;;;15.70;99.90;;;;;;4998234;28;20092;-79
2023/09/21 07:10:23;;;;;;;3.65;1.40;;;15.50;99.90;;;;;;5008234;28;20045;-78
2023/09/21 07:12:50;;;;;;;2.58;1.10;;;15.30;99.90;;;;;;5009446;28;20087;-80
2023/09/21 07:15:15;;;;;;;6.13;1.20;;;15.20;99.90;;;;;;5018986;28;20042;-78
2023/09/21 07:17:41;;;;;;;4.28;1.48;;;15.20;99.90;;;;;;5022743;28;20056;-79
2023/09/21 07:20:07;;;;;;;2.58;1.25;;;15.00;99.90;;;;;;5022431;28;20049;-79
2023/09/21 07:22:33;;;;;;;2.60;1.25;;;15.10;99.90;;;;;;5024353;28;20612;-80
2023/09/21 07:25:03;;;;;;;1.98;1.10;;;15.10;99.90;;;;;;5016401;28;20176;-84
2023/09/21 07:27:29;;;;;;;3.10;1.40;;;15.00;99.90;;;;;;5019989;28;20044;-85
2023/09/21 07:29:56;;;;;;;3.30;1.10;;;15.00;99.90;;;;;;5019175;28;20481;-83
2023/09/21 07:32:28;;;;;;;3.67;1.40;;;15.10;99.90;;;;;;5021783;28;20828;-87
2023/09/21 07:34:54;;;;;;;2.83;1.37;;;15.10;99.90;;;;;;5023188;28;20033;-85
2023/09/21 07:37:20;;;;;;;4.28;1.50;;;15.10;99.90;;;;;;5021920;28;21601;-86
2023/09/21 07:39:45;;;;;;;2.50;1.30;;;15.10;99.90;;;;;;5004803;28;20050;-80
2023/09/21 07:42:11;;;;;;;4.38;1.63;;;15.20;99.90;;;;;;5002653;28;20071;-78
2023/09/21 07:44:37;;;;;;;4.00;1.50;;;15.20;99.90;;;;;;5006846;28;20037;-77
2023/09/21 07:47:03;;;;;;;3.67;1.40;;;15.30;99.90;;;;;;4998094;28;20057;-80
2023/09/21 07:49:28;;;;;;;4.78;1.40;;;15.20;99.90;;;;;;5003611;28;20098;-79
2023/09/21 07:51:57;;;;;;;5.90;1.20;;;15.20;99.90;;;;;;5018450;28;20084;-78
2023/09/21 07:54:22;;;;;;;3.70;1.25;;;15.20;99.90;;;;;;5002753;28;20080;-77
2023/09/21 07:56:48;;;;;;;3.70;1.40;;;15.20;99.90;;;;;;5003570;28;20061;-79
2023/09/21 07:59:15;;;;;;;3.95;1.40;;;15.30;99.90;;;;;;4988803;28;20045;-79
2023/09/21 08:01:41;;;;;;;2.67;1.25;;;15.30;99.90;;;;;;4993422;28;20528;-79
2023/09/21 08:04:07;;;;;;;3.17;1.52;;;15.20;99.90;;;;;;5003790;28;20175;-78
2023/09/21 08:06:33;;;;;;;3.22;1.60;;;15.20;99.90;;;;;;5012008;28;20053;-77
2023/09/21 08:08:59;;;;;;;4.22;1.75;;;15.30;99.90;;;;;;5004950;28;20038;-78
2023/09/21 08:11:25;;;;;;;4.25;1.70;;;15.40;99.90;;;;;;5003734;28;20057;-79
2023/09/21 08:13:51;;;;;;;3.45;1.30;;;15.30;99.90;;;;;;5006372;28;20467;-79
2023/09/21 08:16:16;;;;;;;2.55;1.20;;;15.30;99.90;;;;;;5004364;28;20089;-83
2023/09/21 08:18:42;;;;;;;3.50;1.40;;;15.30;99.90;;;;;;5007099;28;20051;-79
2023/09/21 08:21:10;;;;;;;4.43;1.50;;;15.20;99.90;;;;;;5004897;28;20084;-81
2023/09/21 08:23:36;;;;;;;3.70;1.50;;;15.30;99.90;;;;;;5001070;28;20104;-79
2023/09/21 08:26:03;;;;;;;2.50;1.20;;;15.20;99.90;;;;;;5010076;28;20053;-79
2023/09/21 08:28:29;;;;;;;4.50;1.70;;;15.20;99.90;;;;;;4991190;28;20048;-78
2023/09/21 08:30:56;;;;;;;5.25;1.30;;;15.20;99.90;;;;;;5000242;28;20046;-78
2023/09/21 08:33:23;;;;;;;3.53;1.30;;;15.30;99.90;;;;;;4994326;28;20046;-78
2023/09/21 08:35:49;;;;;;;5.70;1.27;;;15.30;99.90;;;;;;4996926;28;20509;-80
2023/09/21 08:38:16;;;;;;;3.97;1.48;;;15.30;99.90;;;;;;5009702;28;20073;-79
2023/09/21 08:40:47;;;;;;;5.28;1.48;;;15.30;99.90;;;;;;5015206;28;20508;-80
2023/09/21 08:43:24;;;;;;;3.88;1.85;;;15.40;99.90;;;;;;5012799;28;20480;-79
2023/09/21 08:45:50;;;;;;;3.47;1.40;;;15.30;99.90;;;;;;5017514;28;20034;-81
2023/09/21 08:48:21;;;;;;;4.80;1.63;;;15.40;99.90;;;;;;5016214;28;20041;-81
2023/09/21 08:50:53;;;;;;;4.45;1.60;;;15.30;99.90;;;;;;5025831;28;20045;-80
2023/09/21 08:53:21;;;;;;;2.70;1.40;;;15.40;99.90;;;;;;5012194;28;20671;-79
2023/09/21 08:55:52;;;;;;;2.40;1.27;;;15.50;99.90;;;;;;5027977;28;20116;-78
2023/09/21 08:58:23;;;;;;;2.75;1.42;;;15.40;99.90;;;;;;5003331;28;20049;-78
2023/09/21 09:00:53;;;;;;;2.83;1.52;;;15.40;99.90;;;;;;5023183;28;20048;-78
2023/09/21 09:03:21;;;;;;;3.60;1.40;;;15.40;99.90;;;;;;5008555;28;20037;-78
2023/09/21 09:05:48;;;;;;;2.80;1.10;;;15.40;99.90;;;;;;5028588;28;20041;-78
2023/09/21 09:08:13;;;;;;;3.65;1.30;;;15.50;99.90;;;;;;5022307;28;20121;-78
2023/09/21 09:10:40;;;;;;;3.50;1.35;;;15.40;99.90;;;;;;4991473;28;20129;-78
2023/09/21 09:13:06;;;;;;;3.03;1.33;;;15.50;99.90;;;;;;4992217;28;20046;-78
2023/09/21 09:15:34;;;;;;;3.28;1.20;;;15.40;99.90;;;;;;5010694;28;22400;-79
2023/09/21 09:18:06;;;;;;;4.82;1.50;;;15.50;99.90;;;;;;4998951;28;20038;-79
2023/09/21 09:20:36;;;;;;;4.90;1.33;;;15.50;99.90;;;;;;5011623;28;20577;-79
2023/09/21 09:23:02;;;;;;;4.85;1.30;;;15.60;99.90;;;;;;5019544;28;20520;-79
2023/09/21 09:25:28;;;;;;;4.30;1.23;;;15.60;99.90;;;;;;5025518;28;20097;-78
2023/09/21 09:27:54;;;;;;;5.53;1.30;;;15.60;99.90;;;;;;5024581;28;20877;-79
2023/09/21 09:30:24;;;;;;;3.53;1.50;;;15.60;99.90;;;;;;5005320;28;20041;-79
2023/09/21 09:32:52;;;;;;;4.20;1.60;;;15.60;99.90;;;;;;5017699;28;20069;-79
2023/09/21 09:35:19;;;;;;;4.05;1.20;;;15.60;99.90;;;;;;5019093;28;20091;-80
2023/09/21 09:37:48;;;;;;;2.92;1.33;;;15.60;99.90;;;;;;5015285;28;20398;-79
2023/09/21 09:40:24;;;;;;;3.90;1.50;;;15.70;99.90;;;;;;5005278;28;20053;-79
2023/09/21 09:42:53;;;;;;;4.18;1.70;;;15.70;99.90;;;;;;4989446;28;20068;-79
2023/09/21 09:45:25;;;;;;;3.75;1.45;;;15.70;99.90;;;;;;5021891;28;20070;-80
2023/09/21 09:47:56;;;;;;;2.90;1.10;;;15.70;99.90;;;;;;5005167;28;20042;-80
2023/09/21 09:50:26;;;;;;;2.63;1.20;;;15.80;99.90;;;;;;5008841;28;20099;-79
2023/09/21 09:53:06;;;;;;;4.93;1.30;;;15.70;99.90;;;;;;5009508;28;20095;-85
2023/09/21 09:55:35;;;;;;;3.67;1.30;;;15.90;99.90;;;;;;5024079;28;20100;-79
2023/09/21 09:58:02;;;;;;;3.92;1.50;;;15.80;99.90;;;;;;5019651;28;20034;-79
2023/09/21 10:00:29;;;;;;;5.25;1.40;;;15.90;99.90;;;;;;5025970;28;20061;-80
2023/09/21 10:02:58;;;;;;;2.60;1.38;;;16.00;99.90;;;;;;5016206;28;20041;-79
2023/09/21 10:05:28;;;;;;;3.42;1.30;;;16.00;99.90;;;;;;5003499;28;20095;-79
2023/09/21 10:07:59;;;;;;;4.07;1.60;;;16.00;99.90;;;;;;5003838;28;20053;-78
2023/09/21 10:10:30;;;;;;;3.33;1.27;;;16.10;99.90;;;;;;5002839;28;20056;-79
2023/09/21 10:12:57;;;;;;;4.25;1.58;;;16.10;99.90;;;;;;5002161;28;20124;-79
2023/09/21 10:15:24;;;;;;;4.57;1.38;;;16.00;99.90;;;;;;4989679;28;20044;-79
2023/09/21 10:17:54;;;;;;;3.13;1.30;;;15.90;99.90;;;;;;5009664;28;20163;-82
2023/09/21 10:20:27;;;;;;;3.40;1.50;;;15.90;99.90;;;;;;5009139;28;20092;-81
2023/09/21 10:22:59;;;;;;;2.60;1.33;;;15.90;99.90;;;;;;5009081;28;20033;-81
2023/09/21 10:25:51;;;;;;;3.80;1.40;;;15.80;99.90;;;;;;5011261;28;20048;-81
2023/09/21 10:28:27;;;;;;;4.63;1.60;;;15.80;99.90;;;;;;5023018;28;20137;-80
2023/09/21 10:31:11;;;;;;;3.78;1.70;;;15.80;99.90;;;;;;5005297;28;20092;-81
2023/09/21 10:33:37;;;;;;;3.50;1.50;;;15.70;99.90;;;;;;5004090;28;20042;-78
2023/09/21 10:36:03;;;;;;;4.15;1.30;;;15.70;99.90;;;;;;5026921;28;20068;-79
2023/09/21 10:38:29;;;;;;;4.68;1.42;;;15.70;99.90;;;;;;5008394;28;20073;-78
2023/09/21 10:40:54;;;;;;;3.53;1.55;;;15.70;99.90;;;;;;4993079;28;20508;-81
2023/09/21 10:43:38;;;;;;;4.32;1.60;;;15.70;99.90;;;;;;5005049;28;20401;-81
2023/09/21 10:46:20;;;;;;;2.90;1.40;;;15.70;99.90;;;;;;4993893;28;20049;-80
2023/09/21 10:48:47;;;;;;;3.35;1.20;;;15.80;99.90;;;;;;5003880;28;20424;-80
2023/09/21 10:51:13;;;;;;;2.90;1.40;;;15.80;99.90;;;;;;5000073;28;20092;-80
2023/09/21 10:53:38;;;;;;;4.13;1.50;;;15.90;99.90;;;;;;5005631;28;20053;-81
2023/09/21 10:56:05;;;;;;;2.70;1.48;;;15.80;99.90;;;;;;4998085;28;20076;-80
2023/09/21 10:58:34;;;;;;;2.67;1.50;;;15.90;99.90;;;;;;5010231;28;20126;-78
2023/09/21 11:01:00;;;;;;;3.20;1.80;;;16.00;99.90;;;;;;5011603;28;20486;-78
2023/09/21 11:03:35;;;;;;;4.88;1.83;;;15.90;99.90;;;;;;5018608;28;20120;-79
2023/09/21 11:06:01;;;;;;;3.28;1.60;;;15.90;99.90;;;;;;5016623;28;20057;-81
2023/09/21 11:08:27;;;;;;;2.85;1.60;;;15.90;99.90;;;;;;5020045;28;20505;-81
2023/09/21 11:10:52;;;;;;;4.50;1.50;;;16.00;99.90;;;;;;5018906;28;20120;-82
2023/09/21 11:13:18;;;;;;;3.33;1.67;;;16.00;99.90;;;;;;5012962;28;20477;-83
2023/09/21 11:15:45;;;;;;;3.60;1.40;;;16.10;99.90;;;;;;5016606;28;20040;-82
2023/09/21 11:18:10;;;;;;;3.83;1.40;;;16.20;99.90;;;;;;5002023;28;20042;-82
2023/09/21 11:20:37;;;;;;;3.17;1.60;;;16.30;99.90;;;;;;5019625;28;20045;-81
2023/09/21 11:23:03;;;;;;;2.95;1.50;;;16.20;99.90;;;;;;5011235;28;20041;-81
2023/09/21 11:25:29;;;;;;;3.92;1.50;;;16.20;99.90;;;;;;5010285;28;20044;-81
2023/09/21 11:27:57;;;;;;;4.05;1.77;;;16.20;99.90;;;;;;4998982;28;20533;-80
2023/09/21 11:30:23;;;;;;;5.68;1.48;;;16.10;99.90;;;;;;5016156;28;20464;-82
2023/09/21 11:32:50;;;;;;;2.80;1.45;;;16.20;99.90;;;;;;5016628;28;20036;-83
2023/09/21 11:35:17;;;;;;;3.42;1.50;;;16.10;99.90;;;;;;5021542;28;20112;-81
2023/09/21 11:37:44;;;;;;;3.47;1.55;;;16.00;99.90;;;;;;5015836;28;20180;-82
2023/09/21 11:40:13;;;;;;;4.80;1.90;;;16.00;99.90;;;;;;4997116;28;20107;-82
2023/09/21 11:42:45;;;;;;;3.55;1.90;;;16.10;99.90;;;;;;5024946;28;20048;-81
2023/09/21 11:45:19;;;;;;;2.92;1.40;;;16.00;99.90;;;;;;5023693;28;20092;-83
2023/09/21 11:47:56;;;;;;;4.45;1.70;;;16.10;99.90;;;;;;5021264;28;20065;-82
2023/09/21 11:50:25;;;;;;;5.53;1.88;;;16.10;99.90;;;;;;5023066;28;20049;-82
2023/09/21 11:52:55;;;;;;;4.32;1.98;;;16.10;99.90;;;;;;5007525;28;20045;-83
2023/09/21 11:55:22;;;;;;;4.72;1.95;;;16.10;99.90;;;;;;5020986;28;20091;-81
2023/09/21 11:57:49;;;;;;;2.92;1.63;;;16.10;99.90;;;;;;5023870;28;20041;-79
2023/09/21 12:00:27;;;;;;;19.23;2.20;;;16.30;99.90;;;;;;5012982;28;20038;-84
2023/09/21 12:02:56;;;;;;;4.22;1.70;;;16.20;99.90;;;;;;5022761;28;20119;-84
2023/09/21 12:05:22;;;;;;;3.53;1.33;;;16.20;99.90;;;;;;5013347;28;20037;-84
2023/09/21 12:07:48;;;;;;;4.25;1.58;;;16.20;99.90;;;;;;5004197;28;20054;-82
2023/09/21 12:10:15;;;;;;;3.55;1.45;;;16.20;99.90;;;;;;5025331;28;20042;-82
2023/09/21 12:12:42;;;;;;;3.28;1.65;;;16.20;99.90;;;;;;5006809;28;20060;-82
2023/09/21 12:15:10;;;;;;;3.45;1.35;;;16.20;99.90;;;;;;5007366;28;20570;-82
2023/09/21 12:17:36;;;;;;;3.35;1.20;;;16.20;99.90;;;;;;5013029;28;20568;-81
2023/09/21 12:20:11;;;;;;;4.22;1.40;;;16.10;99.90;;;;;;5023398;28;20049;-81
2023/09/21 12:22:37;;;;;;;5.28;1.73;;;16.20;99.90;;;;;;5025326;28;20054;-81
2023/09/21 12:25:05;;;;;;;3.20;1.50;;;16.20;99.90;;;;;;4988170;28;20048;-81
2023/09/21 12:27:32;;;;;;;3.80;1.58;;;16.20;99.90;;;;;;4988959;28;20045;-81
2023/09/21 12:29:58;;;;;;;3.40;1.60;;;16.30;99.90;;;;;;5020345;28;20037;-81
2023/09/21 12:32:24;;;;;;;3.13;1.58;;;16.20;99.90;;;;;;5045156;28;20045;-81
2023/09/21 12:34:51;;;;;;;2.80;1.58;;;16.40;99.90;;;;;;5042820;28;20124;-82
2023/09/21 12:37:18;;;;;;;2.60;1.27;;;16.40;99.90;;;;;;5029450;28;20053;-82
2023/09/21 12:39:44;;;;;;;3.40;1.27;;;16.40;99.90;;;;;;5022566;28;20077;-83
2023/09/21 12:42:11;;;;;;;3.55;1.30;;;16.40;99.90;;;;;;5018593;28;20459;-81
2023/09/21 12:44:36;;;;;;;1.67;1.00;;;16.40;99.90;;;;;;5013108;28;20172;-81
2023/09/21 12:47:02;;;;;;;2.45;1.20;;;16.30;99.90;;;;;;4996081;28;20073;-82
2023/09/21 12:49:28;;;;;;;2.85;1.10;;;16.20;99.90;;;;;;5010706;28;20049;-81
2023/09/21 12:51:54;;;;;;;2.40;1.02;;;16.20;99.90;;;;;;5011615;28;20088;-81